Etusivu
METAR-TAF:

METAR-TAF

Lentoasemat :

Jakutskin lentoasema

Jakutsk, Venäjä

Leveyspiiri: 62-01N, Pituuspiiri: 129-43E, korkeus merenpinnasta: 103 m

Tämänhetkinen sää

Tämä raportti tehtiin 35 minuuttia sitten, kello 17.30 UTC
Tuuli 2 kn pohjoisen/luoteesta
Lämpötila -29°C
Kosteus 83%
Ilmanpaine 1017 hPa
Näkyvyys 10 km tai enemmän
heikkoa lumisadetta

METAR: UEEE 211730Z 33001MPS 9999 -SN NSC M29/M31 Q1017 R23L/420150 NOSIG RMK QFE754

Aika: 03:05 (18:05 UTC)

Sääennuste

Tämä raportti tehtiin 1 tunti ja 5 minuuttia sitten, kello 17.00 UTC
Ennuste voimassa 21. päivästä klo 18 UTC - 22. päivään klo 24 UTC
Tuuli 6 kn pohjoisen/luoteesta
Näkyvyys: 3200 m
Hajanaisia pilviä 2000 ft:n korkeudessa
heikkoa lumisadetta
Ajoittain
21. päivästä klo 21 UTC - 22. päivään klo 06 UTC
Näkyvyys: 0300 m
300 ft:n korkeudessa
sumua

TAF: UEEE 211700Z 2118/2224 33003MPS 3200 -SN SCT020 TEMPO 2121/2206 0300 FG VV003

Säähavainnot ja -ennusteet yli 4000 lentoasemalta (METAR- ja TAF-raportit).

Käytössä olevat sääasemat on merkitty karttaan keltaisilla ja punaisilla pisteillä.

Aseta hiiri pisteen päälle nähdäksesi sääaseman nimen.

Klikkaa sitten nähdäksesi säähavainnot ja -ennusteet.

Kartan vaihtaminen: klikkaa mustalla rastilla varustettuja vihreitä pisteitä, niin voit zoomata sisään; viivalla varustettua vihreää pistettä, niin voit zoomata ulos tai vihreitä nuolia, niin pääset viereisille kartoille.


METAR-TAF: